sensor_id;sensor_type;location;lat;lon;timestamp;P1;durP1;ratioP1;P2;durP2;ratioP2
21148;SDS011;10732;51.472;6.466;2022-08-19T00:00:19;22.77;;;20.48;;
21148;SDS011;10732;51.472;6.466;2022-08-19T00:02:45;25.00;;;22.48;;
21148;SDS011;10732;51.472;6.466;2022-08-19T00:05:11;25.08;;;22.65;;
21148;SDS011;10732;51.472;6.466;2022-08-19T00:07:38;27.55;;;24.35;;
21148;SDS011;10732;51.472;6.466;2022-08-19T00:10:07;27.38;;;23.58;;
21148;SDS011;10732;51.472;6.466;2022-08-19T00:12:34;26.90;;;24.00;;
21148;SDS011;10732;51.472;6.466;2022-08-19T00:15:02;25.38;;;22.85;;
21148;SDS011;10732;51.472;6.466;2022-08-19T00:17:29;24.30;;;21.50;;
21148;SDS011;10732;51.472;6.466;2022-08-19T00:19:55;22.73;;;20.30;;
21148;SDS011;10732;51.472;6.466;2022-08-19T00:22:21;22.40;;;19.88;;
21148;SDS011;10732;51.472;6.466;2022-08-19T00:24:46;23.58;;;21.13;;
21148;SDS011;10732;51.472;6.466;2022-08-19T00:27:12;22.85;;;20.55;;
21148;SDS011;10732;51.472;6.466;2022-08-19T00:29:38;22.83;;;20.42;;
21148;SDS011;10732;51.472;6.466;2022-08-19T00:32:04;22.38;;;20.23;;
21148;SDS011;10732;51.472;6.466;2022-08-19T00:34:31;23.85;;;21.05;;
21148;SDS011;10732;51.472;6.466;2022-08-19T00:36:57;23.85;;;21.45;;
21148;SDS011;10732;51.472;6.466;2022-08-19T00:39:23;23.98;;;21.50;;
21148;SDS011;10732;51.472;6.466;2022-08-19T00:41:49;25.40;;;22.77;;
21148;SDS011;10732;51.472;6.466;2022-08-19T00:46:49;24.55;;;22.15;;
21148;SDS011;10732;51.472;6.466;2022-08-19T00:49:24;25.35;;;22.77;;
21148;SDS011;10732;51.472;6.466;2022-08-19T00:51:58;25.35;;;21.80;;
21148;SDS011;10732;51.472;6.466;2022-08-19T00:54:28;24.58;;;22.13;;
21148;SDS011;10732;51.472;6.466;2022-08-19T00:56:56;25.27;;;22.70;;
21148;SDS011;10732;51.472;6.466;2022-08-19T00:59:22;24.02;;;21.52;;
21148;SDS011;10732;51.472;6.466;2022-08-19T01:01:48;24.92;;;22.35;;
21148;SDS011;10732;51.472;6.466;2022-08-19T01:04:14;24.10;;;21.77;;
21148;SDS011;10732;51.472;6.466;2022-08-19T01:06:41;25.33;;;22.63;;
21148;SDS011;10732;51.472;6.466;2022-08-19T01:09:06;25.05;;;22.38;;
21148;SDS011;10732;51.472;6.466;2022-08-19T01:11:33;26.23;;;23.42;;
21148;SDS011;10732;51.472;6.466;2022-08-19T01:14:01;28.48;;;25.38;;
21148;SDS011;10732;51.472;6.466;2022-08-19T01:16:27;28.02;;;24.13;;
21148;SDS011;10732;51.472;6.466;2022-08-19T01:18:54;27.20;;;23.02;;
21148;SDS011;10732;51.472;6.466;2022-08-19T01:24:08;26.67;;;23.95;;
21148;SDS011;10732;51.472;6.466;2022-08-19T01:26:38;27.45;;;24.40;;
21148;SDS011;10732;51.472;6.466;2022-08-19T01:29:07;30.83;;;27.65;;
21148;SDS011;10732;51.472;6.466;2022-08-19T01:31:33;37.00;;;32.10;;
21148;SDS011;10732;51.472;6.466;2022-08-19T01:33:59;40.80;;;33.85;;
21148;SDS011;10732;51.472;6.466;2022-08-19T01:36:27;42.13;;;36.72;;
21148;SDS011;10732;51.472;6.466;2022-08-19T01:38:56;42.78;;;37.30;;
21148;SDS011;10732;51.472;6.466;2022-08-19T01:41:23;45.50;;;38.35;;
21148;SDS011;10732;51.472;6.466;2022-08-19T01:43:49;40.50;;;36.30;;
21148;SDS011;10732;51.472;6.466;2022-08-19T01:46:16;44.80;;;39.92;;
21148;SDS011;10732;51.472;6.466;2022-08-19T01:48:42;46.65;;;41.22;;
21148;SDS011;10732;51.472;6.466;2022-08-19T01:51:09;55.28;;;45.85;;
21148;SDS011;10732;51.472;6.466;2022-08-19T01:53:36;52.70;;;46.30;;
21148;SDS011;10732;51.472;6.466;2022-08-19T01:56:02;53.70;;;45.35;;
21148;SDS011;10732;51.472;6.466;2022-08-19T01:58:32;50.67;;;45.10;;
21148;SDS011;10732;51.472;6.466;2022-08-19T02:01:01;54.97;;;46.67;;
21148;SDS011;10732;51.472;6.466;2022-08-19T02:03:28;55.10;;;47.30;;
21148;SDS011;10732;51.472;6.466;2022-08-19T02:05:55;51.10;;;45.58;;
21148;SDS011;10732;51.472;6.466;2022-08-19T02:08:22;52.20;;;46.20;;
21148;SDS011;10732;51.472;6.466;2022-08-19T02:10:48;52.95;;;46.47;;
21148;SDS011;10732;51.472;6.466;2022-08-19T02:13:14;53.97;;;46.25;;
21148;SDS011;10732;51.472;6.466;2022-08-19T02:15:40;51.60;;;46.00;;
21148;SDS011;10732;51.472;6.466;2022-08-19T02:18:06;54.22;;;47.80;;
21148;SDS011;10732;51.472;6.466;2022-08-19T02:20:33;52.03;;;45.40;;
21148;SDS011;10732;51.472;6.466;2022-08-19T02:22:59;55.20;;;45.47;;
21148;SDS011;10732;51.472;6.466;2022-08-19T02:25:26;53.55;;;45.83;;
21148;SDS011;10732;51.472;6.466;2022-08-19T02:27:51;52.45;;;45.97;;
21148;SDS011;10732;51.472;6.466;2022-08-19T02:30:18;52.92;;;46.75;;
21148;SDS011;10732;51.472;6.466;2022-08-19T02:32:44;52.33;;;46.55;;
21148;SDS011;10732;51.472;6.466;2022-08-19T02:35:10;51.80;;;45.65;;
21148;SDS011;10732;51.472;6.466;2022-08-19T02:37:37;52.55;;;45.65;;
21148;SDS011;10732;51.472;6.466;2022-08-19T02:40:21;52.15;;;46.28;;
21148;SDS011;10732;51.472;6.466;2022-08-19T02:42:47;52.75;;;45.67;;
21148;SDS011;10732;51.472;6.466;2022-08-19T02:45:13;53.90;;;46.38;;
21148;SDS011;10732;51.472;6.466;2022-08-19T02:47:39;49.70;;;44.17;;
21148;SDS011;10732;51.472;6.466;2022-08-19T02:50:05;58.17;;;46.42;;
21148;SDS011;10732;51.472;6.466;2022-08-19T02:52:32;57.42;;;47.30;;
21148;SDS011;10732;51.472;6.466;2022-08-19T02:54:58;57.20;;;48.08;;
21148;SDS011;10732;51.472;6.466;2022-08-19T02:57:25;55.55;;;45.17;;
21148;SDS011;10732;51.472;6.466;2022-08-19T02:59:51;59.58;;;48.17;;
21148;SDS011;10732;51.472;6.466;2022-08-19T03:02:17;56.33;;;48.80;;
21148;SDS011;10732;51.472;6.466;2022-08-19T03:04:43;55.75;;;47.58;;
21148;SDS011;10732;51.472;6.466;2022-08-19T03:07:08;57.80;;;49.00;;
21148;SDS011;10732;51.472;6.466;2022-08-19T03:09:38;58.90;;;49.17;;
21148;SDS011;10732;51.472;6.466;2022-08-19T03:12:04;59.00;;;50.40;;
21148;SDS011;10732;51.472;6.466;2022-08-19T03:14:30;62.72;;;49.75;;
21148;SDS011;10732;51.472;6.466;2022-08-19T03:16:57;57.28;;;47.97;;
21148;SDS011;10732;51.472;6.466;2022-08-19T03:19:23;58.85;;;49.55;;
21148;SDS011;10732;51.472;6.466;2022-08-19T03:21:49;57.17;;;48.80;;
21148;SDS011;10732;51.472;6.466;2022-08-19T03:24:16;54.90;;;47.20;;
21148;SDS011;10732;51.472;6.466;2022-08-19T03:26:46;55.58;;;46.40;;
21148;SDS011;10732;51.472;6.466;2022-08-19T03:29:17;53.17;;;46.33;;
21148;SDS011;10732;51.472;6.466;2022-08-19T03:31:44;54.28;;;46.53;;
21148;SDS011;10732;51.472;6.466;2022-08-19T03:34:11;59.03;;;48.88;;
21148;SDS011;10732;51.472;6.466;2022-08-19T03:36:38;59.38;;;47.55;;
21148;SDS011;10732;51.472;6.466;2022-08-19T03:39:04;57.33;;;48.35;;
21148;SDS011;10732;51.472;6.466;2022-08-19T03:41:31;55.03;;;46.83;;
21148;SDS011;10732;51.472;6.466;2022-08-19T03:44:01;58.00;;;47.55;;
21148;SDS011;10732;51.472;6.466;2022-08-19T03:46:28;55.92;;;47.33;;
21148;SDS011;10732;51.472;6.466;2022-08-19T03:48:56;56.75;;;47.70;;
21148;SDS011;10732;51.472;6.466;2022-08-19T03:51:27;61.25;;;49.33;;
21148;SDS011;10732;51.472;6.466;2022-08-19T03:53:56;71.75;;;57.70;;
21148;SDS011;10732;51.472;6.466;2022-08-19T03:56:23;70.90;;;56.40;;
21148;SDS011;10732;51.472;6.466;2022-08-19T03:58:50;76.65;;;57.65;;
21148;SDS011;10732;51.472;6.466;2022-08-19T04:01:18;75.35;;;58.05;;
21148;SDS011;10732;51.472;6.466;2022-08-19T04:03:45;71.43;;;55.13;;
21148;SDS011;10732;51.472;6.466;2022-08-19T04:08:43;78.93;;;57.17;;
21148;SDS011;10732;51.472;6.466;2022-08-19T04:11:11;72.95;;;57.40;;
21148;SDS011;10732;51.472;6.466;2022-08-19T04:13:39;74.35;;;58.55;;
21148;SDS011;10732;51.472;6.466;2022-08-19T04:16:06;82.75;;;59.53;;
21148;SDS011;10732;51.472;6.466;2022-08-19T04:18:32;78.20;;;58.33;;
21148;SDS011;10732;51.472;6.466;2022-08-19T04:20:58;79.68;;;60.63;;
21148;SDS011;10732;51.472;6.466;2022-08-19T04:23:24;78.90;;;60.97;;
21148;SDS011;10732;51.472;6.466;2022-08-19T04:25:50;83.57;;;62.17;;
21148;SDS011;10732;51.472;6.466;2022-08-19T04:28:15;82.38;;;60.20;;
21148;SDS011;10732;51.472;6.466;2022-08-19T04:30:42;85.88;;;62.08;;
21148;SDS011;10732;51.472;6.466;2022-08-19T04:33:13;86.20;;;62.20;;
21148;SDS011;10732;51.472;6.466;2022-08-19T04:35:42;76.80;;;58.42;;
21148;SDS011;10732;51.472;6.466;2022-08-19T04:38:10;82.13;;;60.05;;
21148;SDS011;10732;51.472;6.466;2022-08-19T04:40:43;78.65;;;59.58;;
21148;SDS011;10732;51.472;6.466;2022-08-19T04:43:33;77.30;;;57.42;;
21148;SDS011;10732;51.472;6.466;2022-08-19T04:46:07;76.40;;;57.60;;
21148;SDS011;10732;51.472;6.466;2022-08-19T04:48:34;80.68;;;60.72;;
21148;SDS011;10732;51.472;6.466;2022-08-19T04:51:00;73.68;;;56.97;;
21148;SDS011;10732;51.472;6.466;2022-08-19T04:53:26;70.80;;;56.22;;
21148;SDS011;10732;51.472;6.466;2022-08-19T04:55:54;72.25;;;56.72;;
21148;SDS011;10732;51.472;6.466;2022-08-19T04:58:20;75.10;;;58.72;;
21148;SDS011;10732;51.472;6.466;2022-08-19T05:00:45;76.53;;;59.83;;
21148;SDS011;10732;51.472;6.466;2022-08-19T05:03:11;76.10;;;60.50;;
21148;SDS011;10732;51.472;6.466;2022-08-19T05:05:38;74.85;;;59.63;;
21148;SDS011;10732;51.472;6.466;2022-08-19T05:08:05;70.28;;;58.00;;
21148;SDS011;10732;51.472;6.466;2022-08-19T05:10:32;65.35;;;54.65;;
21148;SDS011;10732;51.472;6.466;2022-08-19T05:13:00;61.03;;;50.92;;
21148;SDS011;10732;51.472;6.466;2022-08-19T05:15:26;55.65;;;47.67;;
21148;SDS011;10732;51.472;6.466;2022-08-19T05:17:51;53.22;;;47.42;;
21148;SDS011;10732;51.472;6.466;2022-08-19T05:20:37;50.08;;;44.70;;
21148;SDS011;10732;51.472;6.466;2022-08-19T05:23:21;48.67;;;43.55;;
21148;SDS011;10732;51.472;6.466;2022-08-19T05:25:47;22.38;;;15.90;;
21148;SDS011;10732;51.472;6.466;2022-08-19T05:28:13;46.05;;;41.15;;
21148;SDS011;10732;51.472;6.466;2022-08-19T05:30:38;45.63;;;40.78;;
21148;SDS011;10732;51.472;6.466;2022-08-19T05:33:05;45.38;;;40.60;;
21148;SDS011;10732;51.472;6.466;2022-08-19T05:35:35;48.42;;;40.20;;
21148;SDS011;10732;51.472;6.466;2022-08-19T05:38:02;46.78;;;39.70;;
21148;SDS011;10732;51.472;6.466;2022-08-19T05:40:28;43.13;;;38.75;;
21148;SDS011;10732;51.472;6.466;2022-08-19T05:42:53;44.42;;;39.92;;
21148;SDS011;10732;51.472;6.466;2022-08-19T05:45:19;36.47;;;31.98;;
21148;SDS011;10732;51.472;6.466;2022-08-19T05:47:46;44.65;;;39.85;;
21148;SDS011;10732;51.472;6.466;2022-08-19T05:50:11;43.30;;;38.85;;
21148;SDS011;10732;51.472;6.466;2022-08-19T05:52:37;43.25;;;38.92;;
21148;SDS011;10732;51.472;6.466;2022-08-19T05:55:03;42.45;;;38.08;;
21148;SDS011;10732;51.472;6.466;2022-08-19T05:57:30;43.55;;;39.05;;
21148;SDS011;10732;51.472;6.466;2022-08-19T05:59:56;44.65;;;39.90;;
21148;SDS011;10732;51.472;6.466;2022-08-19T06:02:22;43.20;;;38.60;;
21148;SDS011;10732;51.472;6.466;2022-08-19T06:04:47;40.97;;;36.92;;
21148;SDS011;10732;51.472;6.466;2022-08-19T06:07:14;33.95;;;26.45;;
21148;SDS011;10732;51.472;6.466;2022-08-19T06:09:40;32.70;;;29.13;;
21148;SDS011;10732;51.472;6.466;2022-08-19T06:12:06;43.00;;;38.53;;
21148;SDS011;10732;51.472;6.466;2022-08-19T06:14:33;39.75;;;35.45;;
21148;SDS011;10732;51.472;6.466;2022-08-19T06:17:00;43.30;;;38.97;;
21148;SDS011;10732;51.472;6.466;2022-08-19T06:19:28;34.95;;;30.58;;
21148;SDS011;10732;51.472;6.466;2022-08-19T06:21:58;42.88;;;38.50;;
21148;SDS011;10732;51.472;6.466;2022-08-19T06:24:25;44.75;;;40.10;;
21148;SDS011;10732;51.472;6.466;2022-08-19T06:26:53;42.80;;;38.40;;
21148;SDS011;10732;51.472;6.466;2022-08-19T06:29:22;41.72;;;37.55;;
21148;SDS011;10732;51.472;6.466;2022-08-19T06:31:50;38.92;;;34.40;;
21148;SDS011;10732;51.472;6.466;2022-08-19T06:34:18;35.63;;;32.00;;
21148;SDS011;10732;51.472;6.466;2022-08-19T06:36:45;40.60;;;36.65;;
21148;SDS011;10732;51.472;6.466;2022-08-19T06:39:23;37.38;;;33.67;;
21148;SDS011;10732;51.472;6.466;2022-08-19T06:41:52;39.10;;;35.15;;
21148;SDS011;10732;51.472;6.466;2022-08-19T06:44:21;33.08;;;29.65;;
21148;SDS011;10732;51.472;6.466;2022-08-19T06:46:48;29.75;;;25.30;;
21148;SDS011;10732;51.472;6.466;2022-08-19T06:49:14;28.52;;;25.42;;
21148;SDS011;10732;51.472;6.466;2022-08-19T06:51:43;30.08;;;27.10;;
21148;SDS011;10732;51.472;6.466;2022-08-19T06:54:12;22.80;;;20.52;;
21148;SDS011;10732;51.472;6.466;2022-08-19T06:56:38;29.85;;;26.60;;
21148;SDS011;10732;51.472;6.466;2022-08-19T06:59:05;25.58;;;22.83;;
21148;SDS011;10732;51.472;6.466;2022-08-19T07:01:40;20.20;;;18.23;;
21148;SDS011;10732;51.472;6.466;2022-08-19T07:04:12;28.00;;;24.60;;
21148;SDS011;10732;51.472;6.466;2022-08-19T07:06:39;22.55;;;20.23;;
21148;SDS011;10732;51.472;6.466;2022-08-19T07:09:05;26.15;;;23.52;;
21148;SDS011;10732;51.472;6.466;2022-08-19T07:11:31;25.80;;;23.20;;
21148;SDS011;10732;51.472;6.466;2022-08-19T07:13:57;27.52;;;23.77;;
21148;SDS011;10732;51.472;6.466;2022-08-19T07:16:24;25.50;;;22.83;;
21148;SDS011;10732;51.472;6.466;2022-08-19T07:18:50;31.40;;;23.05;;
21148;SDS011;10732;51.472;6.466;2022-08-19T07:21:17;29.70;;;23.23;;
21148;SDS011;10732;51.472;6.466;2022-08-19T07:23:45;29.90;;;26.75;;
21148;SDS011;10732;51.472;6.466;2022-08-19T07:26:18;26.85;;;23.50;;
21148;SDS011;10732;51.472;6.466;2022-08-19T07:28:49;31.10;;;27.80;;
21148;SDS011;10732;51.472;6.466;2022-08-19T07:31:16;34.40;;;30.80;;
21148;SDS011;10732;51.472;6.466;2022-08-19T07:33:44;40.67;;;36.28;;
21148;SDS011;10732;51.472;6.466;2022-08-19T07:36:12;41.35;;;35.08;;
21148;SDS011;10732;51.472;6.466;2022-08-19T07:38:43;35.55;;;31.77;;
21148;SDS011;10732;51.472;6.466;2022-08-19T07:41:11;30.27;;;26.52;;
21148;SDS011;10732;51.472;6.466;2022-08-19T07:43:38;29.27;;;26.20;;
21148;SDS011;10732;51.472;6.466;2022-08-19T07:46:05;34.30;;;30.75;;
21148;SDS011;10732;51.472;6.466;2022-08-19T07:48:31;41.20;;;36.70;;
21148;SDS011;10732;51.472;6.466;2022-08-19T07:51:03;40.40;;;35.97;;
21148;SDS011;10732;51.472;6.466;2022-08-19T07:53:35;34.72;;;30.67;;
21148;SDS011;10732;51.472;6.466;2022-08-19T07:56:01;40.08;;;35.55;;
21148;SDS011;10732;51.472;6.466;2022-08-19T07:58:30;46.05;;;40.20;;
21148;SDS011;10732;51.472;6.466;2022-08-19T08:00:57;39.28;;;35.05;;
21148;SDS011;10732;51.472;6.466;2022-08-19T08:03:23;39.75;;;35.42;;
21148;SDS011;10732;51.472;6.466;2022-08-19T08:06:09;39.10;;;32.90;;
21148;SDS011;10732;51.472;6.466;2022-08-19T08:08:58;48.83;;;41.13;;
21148;SDS011;10732;51.472;6.466;2022-08-19T08:11:37;39.58;;;34.25;;
21148;SDS011;10732;51.472;6.466;2022-08-19T08:14:04;42.38;;;37.00;;
21148;SDS011;10732;51.472;6.466;2022-08-19T08:16:37;41.25;;;36.78;;
21148;SDS011;10732;51.472;6.466;2022-08-19T08:19:06;35.63;;;31.70;;
21148;SDS011;10732;51.472;6.466;2022-08-19T08:21:33;36.17;;;31.30;;
21148;SDS011;10732;51.472;6.466;2022-08-19T08:23:59;42.15;;;35.80;;
21148;SDS011;10732;51.472;6.466;2022-08-19T08:26:25;38.90;;;34.72;;
21148;SDS011;10732;51.472;6.466;2022-08-19T08:28:53;37.05;;;31.73;;
21148;SDS011;10732;51.472;6.466;2022-08-19T08:31:19;34.83;;;31.15;;
21148;SDS011;10732;51.472;6.466;2022-08-19T08:33:45;41.13;;;36.63;;
21148;SDS011;10732;51.472;6.466;2022-08-19T08:36:11;33.85;;;30.30;;
21148;SDS011;10732;51.472;6.466;2022-08-19T08:38:38;34.75;;;31.05;;
21148;SDS011;10732;51.472;6.466;2022-08-19T08:43:55;35.63;;;31.48;;
21148;SDS011;10732;51.472;6.466;2022-08-19T08:52:15;38.17;;;32.95;;
21148;SDS011;10732;51.472;6.466;2022-08-19T08:54:47;44.60;;;33.88;;
21148;SDS011;10732;51.472;6.466;2022-08-19T08:57:17;33.10;;;29.50;;
21148;SDS011;10732;51.472;6.466;2022-08-19T08:59:48;39.85;;;33.97;;
21148;SDS011;10732;51.472;6.466;2022-08-19T09:02:17;34.33;;;29.75;;
21148;SDS011;10732;51.472;6.466;2022-08-19T09:04:43;31.92;;;28.50;;
21148;SDS011;10732;51.472;6.466;2022-08-19T09:10:04;28.23;;;25.00;;
21148;SDS011;10732;51.472;6.466;2022-08-19T09:12:47;29.50;;;26.38;;
21148;SDS011;10732;51.472;6.466;2022-08-19T09:15:28;26.23;;;23.52;;
21148;SDS011;10732;51.472;6.466;2022-08-19T09:18:01;27.20;;;24.17;;
21148;SDS011;10732;51.472;6.466;2022-08-19T09:20:27;29.23;;;26.25;;
21148;SDS011;10732;51.472;6.466;2022-08-19T09:22:53;25.42;;;22.83;;
21148;SDS011;10732;51.472;6.466;2022-08-19T09:25:20;22.50;;;20.30;;
21148;SDS011;10732;51.472;6.466;2022-08-19T09:27:48;28.65;;;25.75;;
21148;SDS011;10732;51.472;6.466;2022-08-19T09:30:19;26.55;;;23.75;;
21148;SDS011;10732;51.472;6.466;2022-08-19T09:32:47;26.27;;;22.83;;
21148;SDS011;10732;51.472;6.466;2022-08-19T09:35:13;27.45;;;24.60;;
21148;SDS011;10732;51.472;6.466;2022-08-19T09:37:40;27.98;;;25.17;;
21148;SDS011;10732;51.472;6.466;2022-08-19T09:40:07;25.88;;;23.17;;
21148;SDS011;10732;51.472;6.466;2022-08-19T09:42:33;23.45;;;21.05;;
21148;SDS011;10732;51.472;6.466;2022-08-19T09:44:59;25.80;;;23.00;;
21148;SDS011;10732;51.472;6.466;2022-08-19T09:47:25;24.70;;;22.20;;
21148;SDS011;10732;51.472;6.466;2022-08-19T09:49:50;24.55;;;22.15;;
21148;SDS011;10732;51.472;6.466;2022-08-19T09:52:16;23.25;;;20.90;;
21148;SDS011;10732;51.472;6.466;2022-08-19T09:54:42;22.27;;;20.00;;
21148;SDS011;10732;51.472;6.466;2022-08-19T09:57:08;23.25;;;20.85;;
21148;SDS011;10732;51.472;6.466;2022-08-19T09:59:34;20.90;;;18.90;;
21148;SDS011;10732;51.472;6.466;2022-08-19T10:01:59;23.08;;;20.38;;
21148;SDS011;10732;51.472;6.466;2022-08-19T10:04:25;22.15;;;19.90;;
21148;SDS011;10732;51.472;6.466;2022-08-19T10:07:11;19.30;;;17.33;;
21148;SDS011;10732;51.472;6.466;2022-08-19T10:09:37;20.20;;;18.10;;
21148;SDS011;10732;51.472;6.466;2022-08-19T10:12:03;20.00;;;17.58;;
21148;SDS011;10732;51.472;6.466;2022-08-19T10:14:29;20.02;;;17.98;;
21148;SDS011;10732;51.472;6.466;2022-08-19T10:16:56;26.10;;;18.08;;
21148;SDS011;10732;51.472;6.466;2022-08-19T10:19:21;18.58;;;16.67;;
21148;SDS011;10732;51.472;6.466;2022-08-19T10:21:47;17.45;;;15.65;;
21148;SDS011;10732;51.472;6.466;2022-08-19T10:24:12;18.38;;;16.20;;
21148;SDS011;10732;51.472;6.466;2022-08-19T10:26:39;18.23;;;16.02;;
21148;SDS011;10732;51.472;6.466;2022-08-19T10:29:12;17.00;;;15.30;;
21148;SDS011;10732;51.472;6.466;2022-08-19T10:31:40;18.00;;;16.10;;
21148;SDS011;10732;51.472;6.466;2022-08-19T10:34:07;17.50;;;15.63;;
21148;SDS011;10732;51.472;6.466;2022-08-19T10:36:34;20.35;;;14.73;;
21148;SDS011;10732;51.472;6.466;2022-08-19T10:39:02;15.95;;;14.25;;
21148;SDS011;10732;51.472;6.466;2022-08-19T10:41:34;15.90;;;14.30;;
21148;SDS011;10732;51.472;6.466;2022-08-19T10:44:03;18.30;;;14.38;;
21148;SDS011;10732;51.472;6.466;2022-08-19T10:46:35;11.82;;;10.50;;
21148;SDS011;10732;51.472;6.466;2022-08-19T10:49:03;14.55;;;10.35;;
21148;SDS011;10732;51.472;6.466;2022-08-19T10:51:30;11.93;;;9.82;;
21148;SDS011;10732;51.472;6.466;2022-08-19T10:54:15;12.15;;;10.70;;
21148;SDS011;10732;51.472;6.466;2022-08-19T10:56:41;14.48;;;11.85;;
21148;SDS011;10732;51.472;6.466;2022-08-19T10:59:21;14.63;;;12.05;;
21148;SDS011;10732;51.472;6.466;2022-08-19T11:01:52;15.40;;;11.85;;
21148;SDS011;10732;51.472;6.466;2022-08-19T11:04:19;16.00;;;11.57;;
21148;SDS011;10732;51.472;6.466;2022-08-19T11:06:48;12.20;;;11.00;;
21148;SDS011;10732;51.472;6.466;2022-08-19T11:09:15;12.45;;;10.10;;
21148;SDS011;10732;51.472;6.466;2022-08-19T11:11:45;9.75;;;8.75;;
21148;SDS011;10732;51.472;6.466;2022-08-19T11:14:13;13.73;;;10.38;;
21148;SDS011;10732;51.472;6.466;2022-08-19T11:16:41;8.60;;;6.70;;
21148;SDS011;10732;51.472;6.466;2022-08-19T11:19:08;7.82;;;5.57;;
21148;SDS011;10732;51.472;6.466;2022-08-19T11:21:36;5.70;;;4.85;;
21148;SDS011;10732;51.472;6.466;2022-08-19T11:24:05;7.55;;;4.93;;
21148;SDS011;10732;51.472;6.466;2022-08-19T11:26:34;8.95;;;6.97;;
21148;SDS011;10732;51.472;6.466;2022-08-19T11:29:01;8.13;;;7.05;;
21148;SDS011;10732;51.472;6.466;2022-08-19T11:31:29;7.70;;;5.60;;
21148;SDS011;10732;51.472;6.466;2022-08-19T11:33:58;8.02;;;5.80;;
21148;SDS011;10732;51.472;6.466;2022-08-19T11:36:26;7.25;;;4.88;;
21148;SDS011;10732;51.472;6.466;2022-08-19T11:38:53;6.85;;;5.75;;
21148;SDS011;10732;51.472;6.466;2022-08-19T11:41:19;8.43;;;5.35;;
21148;SDS011;10732;51.472;6.466;2022-08-19T11:43:47;6.30;;;5.03;;
21148;SDS011;10732;51.472;6.466;2022-08-19T11:46:15;8.50;;;5.72;;
21148;SDS011;10732;51.472;6.466;2022-08-19T11:48:41;8.93;;;7.05;;
21148;SDS011;10732;51.472;6.466;2022-08-19T11:51:12;8.15;;;6.65;;
21148;SDS011;10732;51.472;6.466;2022-08-19T11:53:42;9.65;;;5.57;;
21148;SDS011;10732;51.472;6.466;2022-08-19T11:56:08;7.53;;;6.15;;
21148;SDS011;10732;51.472;6.466;2022-08-19T11:58:34;7.90;;;6.50;;
21148;SDS011;10732;51.472;6.466;2022-08-19T12:01:00;11.55;;;5.68;;
21148;SDS011;10732;51.472;6.466;2022-08-19T12:03:26;7.15;;;5.68;;
21148;SDS011;10732;51.472;6.466;2022-08-19T12:05:52;10.57;;;6.22;;
21148;SDS011;10732;51.472;6.466;2022-08-19T12:08:18;7.97;;;5.85;;
21148;SDS011;10732;51.472;6.466;2022-08-19T12:10:44;7.00;;;5.40;;
21148;SDS011;10732;51.472;6.466;2022-08-19T12:13:10;9.30;;;5.65;;
21148;SDS011;10732;51.472;6.466;2022-08-19T12:15:39;8.10;;;5.72;;
21148;SDS011;10732;51.472;6.466;2022-08-19T12:18:11;8.70;;;5.70;;
21148;SDS011;10732;51.472;6.466;2022-08-19T12:20:39;8.98;;;5.90;;
21148;SDS011;10732;51.472;6.466;2022-08-19T12:23:07;10.15;;;5.72;;
21148;SDS011;10732;51.472;6.466;2022-08-19T12:25:34;6.43;;;5.43;;
21148;SDS011;10732;51.472;6.466;2022-08-19T12:28:00;8.43;;;6.43;;
21148;SDS011;10732;51.472;6.466;2022-08-19T12:30:26;9.07;;;5.80;;
21148;SDS011;10732;51.472;6.466;2022-08-19T12:32:51;9.18;;;6.00;;
21148;SDS011;10732;51.472;6.466;2022-08-19T12:35:17;9.27;;;5.57;;
21148;SDS011;10732;51.472;6.466;2022-08-19T12:37:45;8.60;;;6.30;;
21148;SDS011;10732;51.472;6.466;2022-08-19T12:40:12;7.72;;;5.00;;
21148;SDS011;10732;51.472;6.466;2022-08-19T12:42:40;8.60;;;5.47;;
21148;SDS011;10732;51.472;6.466;2022-08-19T12:45:07;6.63;;;5.20;;
21148;SDS011;10732;51.472;6.466;2022-08-19T12:47:35;6.72;;;5.63;;
21148;SDS011;10732;51.472;6.466;2022-08-19T12:50:01;10.50;;;6.40;;
21148;SDS011;10732;51.472;6.466;2022-08-19T12:52:26;12.30;;;8.57;;
21148;SDS011;10732;51.472;6.466;2022-08-19T12:54:53;12.23;;;8.38;;
21148;SDS011;10732;51.472;6.466;2022-08-19T12:57:21;9.20;;;8.20;;
21148;SDS011;10732;51.472;6.466;2022-08-19T12:59:51;9.82;;;8.73;;
21148;SDS011;10732;51.472;6.466;2022-08-19T13:02:18;13.25;;;7.60;;
21148;SDS011;10732;51.472;6.466;2022-08-19T13:04:44;10.10;;;6.88;;
21148;SDS011;10732;51.472;6.466;2022-08-19T13:07:10;10.48;;;8.30;;
21148;SDS011;10732;51.472;6.466;2022-08-19T13:09:35;14.60;;;10.45;;
21148;SDS011;10732;51.472;6.466;2022-08-19T13:12:02;12.57;;;11.23;;
21148;SDS011;10732;51.472;6.466;2022-08-19T13:14:32;12.18;;;8.82;;
21148;SDS011;10732;51.472;6.466;2022-08-19T13:16:58;9.88;;;7.60;;
21148;SDS011;10732;51.472;6.466;2022-08-19T13:19:24;10.75;;;7.03;;
21148;SDS011;10732;51.472;6.466;2022-08-19T13:21:50;10.55;;;8.13;;
21148;SDS011;10732;51.472;6.466;2022-08-19T13:24:16;10.50;;;8.65;;
21148;SDS011;10732;51.472;6.466;2022-08-19T13:26:42;11.25;;;8.50;;
21148;SDS011;10732;51.472;6.466;2022-08-19T13:29:08;10.75;;;7.20;;
21148;SDS011;10732;51.472;6.466;2022-08-19T13:31:52;9.90;;;6.60;;
21148;SDS011;10732;51.472;6.466;2022-08-19T13:34:36;10.65;;;6.47;;
21148;SDS011;10732;51.472;6.466;2022-08-19T13:37:03;12.95;;;6.00;;
21148;SDS011;10732;51.472;6.466;2022-08-19T13:39:30;6.65;;;5.30;;
21148;SDS011;10732;51.472;6.466;2022-08-19T13:41:57;9.23;;;6.18;;
21148;SDS011;10732;51.472;6.466;2022-08-19T13:44:24;10.38;;;6.45;;
21148;SDS011;10732;51.472;6.466;2022-08-19T13:46:51;8.45;;;6.47;;
21148;SDS011;10732;51.472;6.466;2022-08-19T13:49:18;6.63;;;5.85;;
21148;SDS011;10732;51.472;6.466;2022-08-19T13:51:45;7.55;;;5.38;;
21148;SDS011;10732;51.472;6.466;2022-08-19T13:54:11;7.03;;;4.90;;
21148;SDS011;10732;51.472;6.466;2022-08-19T13:56:41;7.70;;;5.82;;
21148;SDS011;10732;51.472;6.466;2022-08-19T13:59:08;8.45;;;5.47;;
21148;SDS011;10732;51.472;6.466;2022-08-19T14:01:34;9.52;;;6.53;;
21148;SDS011;10732;51.472;6.466;2022-08-19T14:03:59;7.82;;;5.90;;
21148;SDS011;10732;51.472;6.466;2022-08-19T14:06:26;8.57;;;7.10;;
21148;SDS011;10732;51.472;6.466;2022-08-19T14:08:51;9.52;;;7.45;;
21148;SDS011;10732;51.472;6.466;2022-08-19T14:11:19;12.23;;;9.05;;
21148;SDS011;10732;51.472;6.466;2022-08-19T14:13:47;13.15;;;9.38;;
21148;SDS011;10732;51.472;6.466;2022-08-19T14:16:13;11.18;;;9.00;;
21148;SDS011;10732;51.472;6.466;2022-08-19T14:18:39;9.07;;;7.72;;
21148;SDS011;10732;51.472;6.466;2022-08-19T14:21:06;11.32;;;8.02;;
21148;SDS011;10732;51.472;6.466;2022-08-19T14:23:32;9.15;;;7.18;;
21148;SDS011;10732;51.472;6.466;2022-08-19T14:26:32;10.07;;;6.75;;
21148;SDS011;10732;51.472;6.466;2022-08-19T14:28:51;9.25;;;7.30;;
21148;SDS011;10732;51.472;6.466;2022-08-19T14:31:17;8.00;;;6.72;;
21148;SDS011;10732;51.472;6.466;2022-08-19T14:33:45;13.00;;;8.25;;
21148;SDS011;10732;51.472;6.466;2022-08-19T14:36:15;12.25;;;7.10;;
21148;SDS011;10732;51.472;6.466;2022-08-19T14:38:41;10.73;;;8.00;;
21148;SDS011;10732;51.472;6.466;2022-08-19T14:41:12;14.35;;;9.85;;
21148;SDS011;10732;51.472;6.466;2022-08-19T14:43:38;12.85;;;9.68;;
21148;SDS011;10732;51.472;6.466;2022-08-19T14:46:04;11.15;;;8.93;;
21148;SDS011;10732;51.472;6.466;2022-08-19T14:48:30;12.70;;;8.90;;